sensor_id;sensor_type;location;lat;lon;timestamp;temperature;humidity
4699;DHT22;33708;49.466;11.176;2023-02-11T00:01:49;-3.30;99.90
4699;DHT22;33708;49.466;11.176;2023-02-11T00:04:15;-3.30;99.90
4699;DHT22;33708;49.466;11.176;2023-02-11T00:06:41;-3.40;99.90
4699;DHT22;33708;49.466;11.176;2023-02-11T00:09:07;-3.20;99.90
4699;DHT22;33708;49.466;11.176;2023-02-11T00:11:33;-3.10;99.90
4699;DHT22;33708;49.466;11.176;2023-02-11T00:14:02;-3.30;99.90
4699;DHT22;33708;49.466;11.176;2023-02-11T00:16:28;-3.40;99.90
4699;DHT22;33708;49.466;11.176;2023-02-11T00:18:55;-3.40;99.90
4699;DHT22;33708;49.466;11.176;2023-02-11T00:21:23;-3.40;99.90
4699;DHT22;33708;49.466;11.176;2023-02-11T00:23:49;-3.40;99.90
4699;DHT22;33708;49.466;11.176;2023-02-11T00:26:25;-3.40;99.90
4699;DHT22;33708;49.466;11.176;2023-02-11T00:28:51;-3.40;99.90
4699;DHT22;33708;49.466;11.176;2023-02-11T00:31:19;-3.50;99.90
4699;DHT22;33708;49.466;11.176;2023-02-11T00:33:45;-3.50;99.90
4699;DHT22;33708;49.466;11.176;2023-02-11T00:36:14;-3.50;99.90
4699;DHT22;33708;49.466;11.176;2023-02-11T00:38:43;-3.50;99.90
4699;DHT22;33708;49.466;11.176;2023-02-11T00:41:09;-3.60;99.90
4699;DHT22;33708;49.466;11.176;2023-02-11T00:43:35;-3.70;99.90
4699;DHT22;33708;49.466;11.176;2023-02-11T00:46:01;-3.80;99.90
4699;DHT22;33708;49.466;11.176;2023-02-11T00:48:26;-3.60;99.90
4699;DHT22;33708;49.466;11.176;2023-02-11T00:50:52;-3.70;99.90
4699;DHT22;33708;49.466;11.176;2023-02-11T00:53:18;-3.70;99.90
4699;DHT22;33708;49.466;11.176;2023-02-11T00:55:43;-3.70;99.90
4699;DHT22;33708;49.466;11.176;2023-02-11T00:58:09;-3.80;99.90
4699;DHT22;33708;49.466;11.176;2023-02-11T01:00:35;-3.80;99.90
4699;DHT22;33708;49.466;11.176;2023-02-11T01:03:00;-3.80;99.90
4699;DHT22;33708;49.466;11.176;2023-02-11T01:05:26;-3.80;99.90
4699;DHT22;33708;49.466;11.176;2023-02-11T01:07:52;-3.80;99.90
4699;DHT22;33708;49.466;11.176;2023-02-11T01:10:17;-3.90;99.90
4699;DHT22;33708;49.466;11.176;2023-02-11T01:12:43;-3.90;99.90
4699;DHT22;33708;49.466;11.176;2023-02-11T01:15:11;-3.80;99.90
4699;DHT22;33708;49.466;11.176;2023-02-11T01:17:37;-3.70;99.90
4699;DHT22;33708;49.466;11.176;2023-02-11T01:20:11;-3.50;99.90
4699;DHT22;33708;49.466;11.176;2023-02-11T01:22:38;-3.50;99.90
4699;DHT22;33708;49.466;11.176;2023-02-11T01:25:07;-3.60;99.90
4699;DHT22;33708;49.466;11.176;2023-02-11T01:27:33;-3.60;99.90
4699;DHT22;33708;49.466;11.176;2023-02-11T01:29:59;-3.60;99.90
4699;DHT22;33708;49.466;11.176;2023-02-11T01:32:24;-3.50;99.90
4699;DHT22;33708;49.466;11.176;2023-02-11T01:34:50;-3.50;99.90
4699;DHT22;33708;49.466;11.176;2023-02-11T01:37:16;-3.50;99.90
4699;DHT22;33708;49.466;11.176;2023-02-11T01:39:41;-3.50;98.90
4699;DHT22;33708;49.466;11.176;2023-02-11T01:42:08;-3.50;98.90
4699;DHT22;33708;49.466;11.176;2023-02-11T01:44:37;-3.50;98.80
4699;DHT22;33708;49.466;11.176;2023-02-11T01:47:04;-3.50;98.60
4699;DHT22;33708;49.466;11.176;2023-02-11T01:52:20;-3.40;99.70
4699;DHT22;33708;49.466;11.176;2023-02-11T01:54:54;-3.40;99.20
4699;DHT22;33708;49.466;11.176;2023-02-11T01:57:43;-3.30;99.90
4699;DHT22;33708;49.466;11.176;2023-02-11T02:08:04;-2.90;99.90
4699;DHT22;33708;49.466;11.176;2023-02-11T02:10:33;-2.80;99.90
4699;DHT22;33708;49.466;11.176;2023-02-11T02:12:59;-2.60;99.90
4699;DHT22;33708;49.466;11.176;2023-02-11T02:15:33;-2.70;95.30
4699;DHT22;33708;49.466;11.176;2023-02-11T02:23:24;-3.00;86.20
4699;DHT22;33708;49.466;11.176;2023-02-11T02:34:52;-2.80;85.60
4699;DHT22;33708;49.466;11.176;2023-02-11T02:39:56;-2.60;92.30
4699;DHT22;33708;49.466;11.176;2023-02-11T02:42:24;-2.60;93.10
4699;DHT22;33708;49.466;11.176;2023-02-11T02:44:51;-2.50;91.90
4699;DHT22;33708;49.466;11.176;2023-02-11T02:47:18;-2.60;90.40
4699;DHT22;33708;49.466;11.176;2023-02-11T02:49:44;-2.80;84.10
4699;DHT22;33708;49.466;11.176;2023-02-11T02:52:34;-2.90;83.90
4699;DHT22;33708;49.466;11.176;2023-02-11T02:58:22;-2.80;88.30
4699;DHT22;33708;49.466;11.176;2023-02-11T03:04:16;-2.80;84.20
4699;DHT22;33708;49.466;11.176;2023-02-11T03:09:50;-2.50;88.20
4699;DHT22;33708;49.466;11.176;2023-02-11T03:12:18;-2.60;79.10
4699;DHT22;33708;49.466;11.176;2023-02-11T03:14:45;-2.30;90.40
4699;DHT22;33708;49.466;11.176;2023-02-11T03:17:13;-2.20;85.60
4699;DHT22;33708;49.466;11.176;2023-02-11T03:19:42;-2.30;76.00
4699;DHT22;33708;49.466;11.176;2023-02-11T03:22:18;-2.40;76.10
4699;DHT22;33708;49.466;11.176;2023-02-11T03:24:45;-2.30;79.30
4699;DHT22;33708;49.466;11.176;2023-02-11T03:27:38;-2.10;79.80
4699;DHT22;33708;49.466;11.176;2023-02-11T03:30:13;-2.20;75.30
4699;DHT22;33708;49.466;11.176;2023-02-11T03:32:48;-2.20;73.50
4699;DHT22;33708;49.466;11.176;2023-02-11T03:35:41;-2.10;80.00
4699;DHT22;33708;49.466;11.176;2023-02-11T03:38:16;-1.90;81.20
4699;DHT22;33708;49.466;11.176;2023-02-11T03:40:42;-1.90;80.00
4699;DHT22;33708;49.466;11.176;2023-02-11T03:43:22;-1.90;94.10
4699;DHT22;33708;49.466;11.176;2023-02-11T03:45:52;-1.90;86.00
4699;DHT22;33708;49.466;11.176;2023-02-11T03:48:22;-1.80;85.40
4699;DHT22;33708;49.466;11.176;2023-02-11T03:50:51;-1.60;89.70
4699;DHT22;33708;49.466;11.176;2023-02-11T03:53:19;-1.40;93.30
4699;DHT22;33708;49.466;11.176;2023-02-11T03:55:46;-1.40;91.10
4699;DHT22;33708;49.466;11.176;2023-02-11T03:58:13;-1.30;90.20
4699;DHT22;33708;49.466;11.176;2023-02-11T04:00:41;-1.60;83.10
4699;DHT22;33708;49.466;11.176;2023-02-11T04:03:08;-1.60;84.40
4699;DHT22;33708;49.466;11.176;2023-02-11T04:05:34;-1.50;92.40
4699;DHT22;33708;49.466;11.176;2023-02-11T04:08:00;-1.40;90.30
4699;DHT22;33708;49.466;11.176;2023-02-11T04:10:26;-1.60;85.20
4699;DHT22;33708;49.466;11.176;2023-02-11T04:12:51;-1.40;91.20
4699;DHT22;33708;49.466;11.176;2023-02-11T04:15:17;-1.60;86.80
4699;DHT22;33708;49.466;11.176;2023-02-11T04:17:43;-1.50;93.40
4699;DHT22;33708;49.466;11.176;2023-02-11T04:20:09;-1.90;86.10
4699;DHT22;33708;49.466;11.176;2023-02-11T04:22:36;-2.10;87.80
4699;DHT22;33708;49.466;11.176;2023-02-11T04:25:03;-2.10;90.50
4699;DHT22;33708;49.466;11.176;2023-02-11T04:27:28;-2.00;92.10
4699;DHT22;33708;49.466;11.176;2023-02-11T04:29:54;-1.80;98.40
4699;DHT22;33708;49.466;11.176;2023-02-11T04:32:20;-1.50;99.90
4699;DHT22;33708;49.466;11.176;2023-02-11T04:34:45;-1.60;95.70
4699;DHT22;33708;49.466;11.176;2023-02-11T04:37:14;-1.70;93.00
4699;DHT22;33708;49.466;11.176;2023-02-11T04:39:40;-1.90;91.90
4699;DHT22;33708;49.466;11.176;2023-02-11T04:42:06;-1.90;91.70
4699;DHT22;33708;49.466;11.176;2023-02-11T04:44:31;-2.00;91.90
4699;DHT22;33708;49.466;11.176;2023-02-11T04:46:57;-2.20;92.40
4699;DHT22;33708;49.466;11.176;2023-02-11T04:49:23;-2.10;94.30
4699;DHT22;33708;49.466;11.176;2023-02-11T04:51:49;-1.90;98.40
4699;DHT22;33708;49.466;11.176;2023-02-11T04:54:15;-1.80;99.90
4699;DHT22;33708;49.466;11.176;2023-02-11T04:56:41;-1.50;99.90
4699;DHT22;33708;49.466;11.176;2023-02-11T04:59:07;-1.70;97.10
4699;DHT22;33708;49.466;11.176;2023-02-11T05:01:32;-1.70;97.00
4699;DHT22;33708;49.466;11.176;2023-02-11T05:03:58;-1.70;96.30
4699;DHT22;33708;49.466;11.176;2023-02-11T05:06:24;-1.50;98.40
4699;DHT22;33708;49.466;11.176;2023-02-11T05:08:50;-1.30;98.10
4699;DHT22;33708;49.466;11.176;2023-02-11T05:11:18;-1.30;97.70
4699;DHT22;33708;49.466;11.176;2023-02-11T05:13:45;-1.40;97.90
4699;DHT22;33708;49.466;11.176;2023-02-11T05:16:11;-1.50;95.80
4699;DHT22;33708;49.466;11.176;2023-02-11T05:18:38;-1.60;95.80
4699;DHT22;33708;49.466;11.176;2023-02-11T05:21:12;-1.60;99.90
4699;DHT22;33708;49.466;11.176;2023-02-11T05:23:39;-1.60;99.90
4699;DHT22;33708;49.466;11.176;2023-02-11T05:26:04;-1.50;97.90
4699;DHT22;33708;49.466;11.176;2023-02-11T05:28:30;-1.30;99.90
4699;DHT22;33708;49.466;11.176;2023-02-11T05:30:56;-1.30;98.10
4699;DHT22;33708;49.466;11.176;2023-02-11T05:33:22;-1.20;99.90
4699;DHT22;33708;49.466;11.176;2023-02-11T05:35:48;-0.90;99.90
4699;DHT22;33708;49.466;11.176;2023-02-11T05:38:13;-0.70;99.90
4699;DHT22;33708;49.466;11.176;2023-02-11T05:40:39;-0.80;99.50
4699;DHT22;33708;49.466;11.176;2023-02-11T05:43:05;-0.80;99.10
4699;DHT22;33708;49.466;11.176;2023-02-11T05:45:31;-0.70;99.90
4699;DHT22;33708;49.466;11.176;2023-02-11T05:47:57;-0.60;99.90
4699;DHT22;33708;49.466;11.176;2023-02-11T05:50:23;-0.40;99.90
4699;DHT22;33708;49.466;11.176;2023-02-11T05:52:49;-0.40;99.60
4699;DHT22;33708;49.466;11.176;2023-02-11T05:55:14;-0.40;97.20
4699;DHT22;33708;49.466;11.176;2023-02-11T05:57:40;-0.60;97.40
4699;DHT22;33708;49.466;11.176;2023-02-11T06:00:07;-1.00;96.60
4699;DHT22;33708;49.466;11.176;2023-02-11T06:02:33;-1.00;95.80
4699;DHT22;33708;49.466;11.176;2023-02-11T06:04:58;-0.90;98.10
4699;DHT22;33708;49.466;11.176;2023-02-11T06:07:24;-0.70;99.90
4699;DHT22;33708;49.466;11.176;2023-02-11T06:09:50;-0.50;99.90
4699;DHT22;33708;49.466;11.176;2023-02-11T06:12:16;-0.40;99.90
4699;DHT22;33708;49.466;11.176;2023-02-11T06:14:41;-0.40;99.90
4699;DHT22;33708;49.466;11.176;2023-02-11T06:17:07;-0.20;99.90
4699;DHT22;33708;49.466;11.176;2023-02-11T06:19:33;-0.10;99.90
4699;DHT22;33708;49.466;11.176;2023-02-11T06:21:58;-0.10;99.90
4699;DHT22;33708;49.466;11.176;2023-02-11T06:24:24;-0.20;99.90
4699;DHT22;33708;49.466;11.176;2023-02-11T06:26:50;-0.30;99.90
4699;DHT22;33708;49.466;11.176;2023-02-11T06:29:15;-0.50;99.90
4699;DHT22;33708;49.466;11.176;2023-02-11T06:31:41;-0.50;99.90
4699;DHT22;33708;49.466;11.176;2023-02-11T06:34:07;-0.50;99.90
4699;DHT22;33708;49.466;11.176;2023-02-11T06:36:34;-0.60;99.90
4699;DHT22;33708;49.466;11.176;2023-02-11T06:39:00;-0.50;99.90
4699;DHT22;33708;49.466;11.176;2023-02-11T06:41:26;-0.60;99.90
4699;DHT22;33708;49.466;11.176;2023-02-11T06:43:52;-0.70;99.90
4699;DHT22;33708;49.466;11.176;2023-02-11T06:46:18;-0.90;99.90
4699;DHT22;33708;49.466;11.176;2023-02-11T06:48:44;-0.90;99.90
4699;DHT22;33708;49.466;11.176;2023-02-11T06:51:11;-0.90;99.90
4699;DHT22;33708;49.466;11.176;2023-02-11T06:53:41;-0.90;99.90
4699;DHT22;33708;49.466;11.176;2023-02-11T06:56:09;-1.10;99.90
4699;DHT22;33708;49.466;11.176;2023-02-11T06:58:36;-1.30;99.90
4699;DHT22;33708;49.466;11.176;2023-02-11T07:01:07;-1.30;99.90
4699;DHT22;33708;49.466;11.176;2023-02-11T07:03:34;-1.50;99.90
4699;DHT22;33708;49.466;11.176;2023-02-11T07:06:04;-1.50;99.90
4699;DHT22;33708;49.466;11.176;2023-02-11T07:08:32;-1.50;99.90
4699;DHT22;33708;49.466;11.176;2023-02-11T07:10:58;-1.40;99.90
4699;DHT22;33708;49.466;11.176;2023-02-11T07:13:24;-1.20;99.90
4699;DHT22;33708;49.466;11.176;2023-02-11T07:15:50;-1.00;99.90
4699;DHT22;33708;49.466;11.176;2023-02-11T07:18:15;-0.80;99.90
4699;DHT22;33708;49.466;11.176;2023-02-11T07:20:41;-0.70;99.90
4699;DHT22;33708;49.466;11.176;2023-02-11T07:23:06;0.40;99.90
4699;DHT22;33708;49.466;11.176;2023-02-11T07:25:32;2.00;99.90
4699;DHT22;33708;49.466;11.176;2023-02-11T07:27:58;3.40;99.90
4699;DHT22;33708;49.466;11.176;2023-02-11T07:30:23;4.20;99.90
4699;DHT22;33708;49.466;11.176;2023-02-11T07:32:49;4.80;99.90
4699;DHT22;33708;49.466;11.176;2023-02-11T07:35:15;5.30;99.90
4699;DHT22;33708;49.466;11.176;2023-02-11T07:37:40;5.80;1.00
4699;DHT22;33708;49.466;11.176;2023-02-11T07:40:07;6.40;99.90
4699;DHT22;33708;49.466;11.176;2023-02-11T07:42:34;7.10;94.00
4699;DHT22;33708;49.466;11.176;2023-02-11T07:45:00;6.50;84.40
4699;DHT22;33708;49.466;11.176;2023-02-11T07:47:25;7.50;92.80
4699;DHT22;33708;49.466;11.176;2023-02-11T07:49:51;7.70;83.20
4699;DHT22;33708;49.466;11.176;2023-02-11T07:52:17;8.90;88.10
4699;DHT22;33708;49.466;11.176;2023-02-11T07:54:43;7.90;74.60
4699;DHT22;33708;49.466;11.176;2023-02-11T07:57:08;8.10;71.20
4699;DHT22;33708;49.466;11.176;2023-02-11T07:59:34;8.20;70.80
4699;DHT22;33708;49.466;11.176;2023-02-11T08:02:00;7.00;54.70
4699;DHT22;33708;49.466;11.176;2023-02-11T08:04:25;6.50;54.10
4699;DHT22;33708;49.466;11.176;2023-02-11T08:06:51;7.20;66.30
4699;DHT22;33708;49.466;11.176;2023-02-11T08:09:18;8.80;77.10
4699;DHT22;33708;49.466;11.176;2023-02-11T08:11:44;6.60;51.70
4699;DHT22;33708;49.466;11.176;2023-02-11T08:14:10;6.30;47.30
4699;DHT22;33708;49.466;11.176;2023-02-11T08:16:37;7.10;58.30
4699;DHT22;33708;49.466;11.176;2023-02-11T08:19:11;6.40;52.20
4699;DHT22;33708;49.466;11.176;2023-02-11T08:21:37;6.20;48.60
4699;DHT22;33708;49.466;11.176;2023-02-11T08:24:04;5.40;42.50
4699;DHT22;33708;49.466;11.176;2023-02-11T08:26:31;5.50;50.00
4699;DHT22;33708;49.466;11.176;2023-02-11T08:28:59;5.00;44.10
4699;DHT22;33708;49.466;11.176;2023-02-11T08:31:29;4.70;43.40
4699;DHT22;33708;49.466;11.176;2023-02-11T08:33:55;4.30;40.40
4699;DHT22;33708;49.466;11.176;2023-02-11T08:36:30;4.60;48.40
4699;DHT22;33708;49.466;11.176;2023-02-11T08:38:57;5.00;58.50
4699;DHT22;33708;49.466;11.176;2023-02-11T08:41:33;5.30;59.80
4699;DHT22;33708;49.466;11.176;2023-02-11T08:43:59;5.00;54.40
4699;DHT22;33708;49.466;11.176;2023-02-11T08:46:25;5.00;56.80
4699;DHT22;33708;49.466;11.176;2023-02-11T08:48:51;5.30;62.00
4699;DHT22;33708;49.466;11.176;2023-02-11T08:51:19;5.10;56.40
4699;DHT22;33708;49.466;11.176;2023-02-11T08:53:45;5.20;59.80
4699;DHT22;33708;49.466;11.176;2023-02-11T08:56:12;5.80;73.90
4699;DHT22;33708;49.466;11.176;2023-02-11T08:58:39;5.90;70.90
4699;DHT22;33708;49.466;11.176;2023-02-11T09:01:30;6.40;78.00
4699;DHT22;33708;49.466;11.176;2023-02-11T09:03:55;6.60;74.00
4699;DHT22;33708;49.466;11.176;2023-02-11T09:06:22;6.70;72.30
4699;DHT22;33708;49.466;11.176;2023-02-11T09:08:50;6.70;75.90
4699;DHT22;33708;49.466;11.176;2023-02-11T09:11:18;6.50;67.80
4699;DHT22;33708;49.466;11.176;2023-02-11T09:13:44;6.50;68.00
4699;DHT22;33708;49.466;11.176;2023-02-11T09:16:19;7.00;73.40
4699;DHT22;33708;49.466;11.176;2023-02-11T09:18:46;7.00;69.60
4699;DHT22;33708;49.466;11.176;2023-02-11T09:21:12;6.70;66.30
4699;DHT22;33708;49.466;11.176;2023-02-11T09:23:38;7.30;71.50
4699;DHT22;33708;49.466;11.176;2023-02-11T09:26:28;7.50;69.30
4699;DHT22;33708;49.466;11.176;2023-02-11T09:28:54;7.70;70.00
4699;DHT22;33708;49.466;11.176;2023-02-11T09:31:22;8.30;77.40
4699;DHT22;33708;49.466;11.176;2023-02-11T09:33:50;8.40;71.70
4699;DHT22;33708;49.466;11.176;2023-02-11T09:36:18;8.00;64.70
4699;DHT22;33708;49.466;11.176;2023-02-11T09:38:45;7.90;64.30
4699;DHT22;33708;49.466;11.176;2023-02-11T09:43:59;7.60;63.00
4699;DHT22;33708;49.466;11.176;2023-02-11T09:46:31;7.50;60.00
4699;DHT22;33708;49.466;11.176;2023-02-11T09:48:58;7.40;59.70
4699;DHT22;33708;49.466;11.176;2023-02-11T09:51:58;7.50;61.00
4699;DHT22;33708;49.466;11.176;2023-02-11T09:55:08;7.60;61.10
4699;DHT22;33708;49.466;11.176;2023-02-11T09:57:36;7.80;63.00
4699;DHT22;33708;49.466;11.176;2023-02-11T10:00:22;7.60;58.90
4699;DHT22;33708;49.466;11.176;2023-02-11T10:03:08;7.60;59.80
4699;DHT22;33708;49.466;11.176;2023-02-11T10:08:39;8.30;66.80
4699;DHT22;33708;49.466;11.176;2023-02-11T10:17:02;9.30;64.80
4699;DHT22;33708;49.466;11.176;2023-02-11T10:22:18;8.90;56.70
4699;DHT22;33708;49.466;11.176;2023-02-11T10:24:55;8.50;54.50
4699;DHT22;33708;49.466;11.176;2023-02-11T10:27:30;8.50;55.30
4699;DHT22;33708;49.466;11.176;2023-02-11T10:32:43;8.40;57.00
4699;DHT22;33708;49.466;11.176;2023-02-11T10:35:16;8.20;54.40
4699;DHT22;33708;49.466;11.176;2023-02-11T10:37:43;8.20;54.80
4699;DHT22;33708;49.466;11.176;2023-02-11T10:40:18;8.20;56.10
4699;DHT22;33708;49.466;11.176;2023-02-11T10:42:47;8.80;61.30
4699;DHT22;33708;49.466;11.176;2023-02-11T10:47:53;9.40;61.90
4699;DHT22;33708;49.466;11.176;2023-02-11T10:50:31;9.20;57.90
4699;DHT22;33708;49.466;11.176;2023-02-11T10:53:14;9.70;60.30
4699;DHT22;33708;49.466;11.176;2023-02-11T10:55:49;9.60;59.20
4699;DHT22;33708;49.466;11.176;2023-02-11T10:58:24;9.60;56.60
4699;DHT22;33708;49.466;11.176;2023-02-11T11:00:53;9.70;56.90
4699;DHT22;33708;49.466;11.176;2023-02-11T11:03:25;9.60;57.30
4699;DHT22;33708;49.466;11.176;2023-02-11T11:05:55;9.20;54.90
4699;DHT22;33708;49.466;11.176;2023-02-11T11:11:04;9.10;56.50
4699;DHT22;33708;49.466;11.176;2023-02-11T11:13:39;9.70;59.80
4699;DHT22;33708;49.466;11.176;2023-02-11T11:18:38;10.00;59.90
4699;DHT22;33708;49.466;11.176;2023-02-11T11:21:05;9.50;55.80
4699;DHT22;33708;49.466;11.176;2023-02-11T11:23:34;9.50;55.00
4699;DHT22;33708;49.466;11.176;2023-02-11T11:26:04;9.20;54.50
4699;DHT22;33708;49.466;11.176;2023-02-11T11:28:35;8.80;52.80
4699;DHT22;33708;49.466;11.176;2023-02-11T11:31:03;8.80;53.40
4699;DHT22;33708;49.466;11.176;2023-02-11T11:33:34;8.80;55.20
4699;DHT22;33708;49.466;11.176;2023-02-11T11:36:09;9.20;58.50
4699;DHT22;33708;49.466;11.176;2023-02-11T11:38:42;9.10;56.00
4699;DHT22;33708;49.466;11.176;2023-02-11T11:43:56;9.50;58.60
4699;DHT22;33708;49.466;11.176;2023-02-11T11:46:28;9.60;57.00
4699;DHT22;33708;49.466;11.176;2023-02-11T11:48:59;9.50;56.40
4699;DHT22;33708;49.466;11.176;2023-02-11T11:51:26;9.00;54.50
4699;DHT22;33708;49.466;11.176;2023-02-11T11:53:58;9.30;56.20
4699;DHT22;33708;49.466;11.176;2023-02-11T11:57:01;9.80;59.80
4699;DHT22;33708;49.466;11.176;2023-02-11T11:59:29;9.40;54.90
4699;DHT22;33708;49.466;11.176;2023-02-11T12:04:59;9.00;53.00
4699;DHT22;33708;49.466;11.176;2023-02-11T12:21:47;9.60;58.70
4699;DHT22;33708;49.466;11.176;2023-02-11T12:24:29;9.30;56.70
4699;DHT22;33708;49.466;11.176;2023-02-11T12:35:54;8.70;52.60
4699;DHT22;33708;49.466;11.176;2023-02-11T12:38:27;8.60;51.40
4699;DHT22;33708;49.466;11.176;2023-02-11T12:43:41;8.90;55.50
4699;DHT22;33708;49.466;11.176;2023-02-11T12:49:27;8.90;56.10
4699;DHT22;33708;49.466;11.176;2023-02-11T12:52:27;8.70;54.20
4699;DHT22;33708;49.466;11.176;2023-02-11T12:54:58;8.80;56.90
4699;DHT22;33708;49.466;11.176;2023-02-11T12:57:28;9.00;57.40
4699;DHT22;33708;49.466;11.176;2023-02-11T13:00:15;9.10;56.80
4699;DHT22;33708;49.466;11.176;2023-02-11T13:08:18;9.30;57.10
4699;DHT22;33708;49.466;11.176;2023-02-11T13:10:49;9.10;55.30
4699;DHT22;33708;49.466;11.176;2023-02-11T13:13:36;9.40;56.20
4699;DHT22;33708;49.466;11.176;2023-02-11T13:16:57;9.30;55.60
4699;DHT22;33708;49.466;11.176;2023-02-11T13:19:23;9.50;57.90
4699;DHT22;33708;49.466;11.176;2023-02-11T13:27:18;9.20;52.90
4699;DHT22;33708;49.466;11.176;2023-02-11T13:35:35;9.20;56.40
4699;DHT22;33708;49.466;11.176;2023-02-11T13:38:05;9.30;55.50
4699;DHT22;33708;49.466;11.176;2023-02-11T13:40:42;9.20;54.60
4699;DHT22;33708;49.466;11.176;2023-02-11T13:43:20;9.20;54.30
4699;DHT22;33708;49.466;11.176;2023-02-11T13:45:48;8.80;51.20
4699;DHT22;33708;49.466;11.176;2023-02-11T13:48:30;8.80;51.30
4699;DHT22;33708;49.466;11.176;2023-02-11T13:51:13;8.90;53.30
4699;DHT22;33708;49.466;11.176;2023-02-11T13:53:58;9.10;53.70
4699;DHT22;33708;49.466;11.176;2023-02-11T13:56:35;9.10;53.80
4699;DHT22;33708;49.466;11.176;2023-02-11T14:02:02;8.80;51.80
4699;DHT22;33708;49.466;11.176;2023-02-11T14:13:24;9.30;54.50
4699;DHT22;33708;49.466;11.176;2023-02-11T14:16:25;9.00;55.00
4699;DHT22;33708;49.466;11.176;2023-02-11T14:21:31;8.80;54.20
4699;DHT22;33708;49.466;11.176;2023-02-11T14:29:47;8.30;56.50
4699;DHT22;33708;49.466;11.176;2023-02-11T14:35:09;8.10;57.80
4699;DHT22;33708;49.466;11.176;2023-02-11T14:40:27;7.80;66.80
4699;DHT22;33708;49.466;11.176;2023-02-11T14:42:54;7.80;66.70
4699;DHT22;33708;49.466;11.176;2023-02-11T14:45:26;7.80;67.10
4699;DHT22;33708;49.466;11.176;2023-02-11T14:48:07;7.60;70.40
4699;DHT22;33708;49.466;11.176;2023-02-11T14:51:10;7.50;69.40
4699;DHT22;33708;49.466;11.176;2023-02-11T14:53:43;7.50;72.40
4699;DHT22;33708;49.466;11.176;2023-02-11T14:56:24;7.40;73.60
4699;DHT22;33708;49.466;11.176;2023-02-11T14:58:53;7.50;74.80
4699;DHT22;33708;49.466;11.176;2023-02-11T15:01:31;7.40;78.00
4699;DHT22;33708;49.466;11.176;2023-02-11T15:03:57;7.40;75.30
4699;DHT22;33708;49.466;11.176;2023-02-11T15:09:14;7.40;76.20
4699;DHT22;33708;49.466;11.176;2023-02-11T15:11:42;7.20;75.00
4699;DHT22;33708;49.466;11.176;2023-02-11T15:14:30;7.00;76.20
4699;DHT22;33708;49.466;11.176;2023-02-11T15:17:00;6.90;75.40
4699;DHT22;33708;49.466;11.176;2023-02-11T15:19:34;7.00;78.10
4699;DHT22;33708;49.466;11.176;2023-02-11T15:22:22;7.00;77.90
4699;DHT22;33708;49.466;11.176;2023-02-11T15:25:01;7.00;79.60
4699;DHT22;33708;49.466;11.176;2023-02-11T15:27:43;7.10;82.90
4699;DHT22;33708;49.466;11.176;2023-02-11T15:32:48;7.00;80.80
4699;DHT22;33708;49.466;11.176;2023-02-11T15:35:22;7.10;81.60
4699;DHT22;33708;49.466;11.176;2023-02-11T15:37:48;7.10;82.40
4699;DHT22;33708;49.466;11.176;2023-02-11T15:40:18;7.20;83.30
4699;DHT22;33708;49.466;11.176;2023-02-11T15:43:08;7.20;82.50
4699;DHT22;33708;49.466;11.176;2023-02-11T15:45:42;7.30;83.10
4699;DHT22;33708;49.466;11.176;2023-02-11T15:48:12;7.10;81.30
4699;DHT22;33708;49.466;11.176;2023-02-11T15:50:41;7.10;82.00
4699;DHT22;33708;49.466;11.176;2023-02-11T15:55:50;7.20;86.80
4699;DHT22;33708;49.466;11.176;2023-02-11T15:58:16;7.20;82.20
4699;DHT22;33708;49.466;11.176;2023-02-11T16:00:47;7.00;82.70
4699;DHT22;33708;49.466;11.176;2023-02-11T16:03:22;6.80;80.70
4699;DHT22;33708;49.466;11.176;2023-02-11T16:05:48;6.90;94.70
4699;DHT22;33708;49.466;11.176;2023-02-11T16:08:32;6.90;85.40
4699;DHT22;33708;49.466;11.176;2023-02-11T16:11:02;6.90;84.50
4699;DHT22;33708;49.466;11.176;2023-02-11T16:13:46;7.00;84.80
4699;DHT22;33708;49.466;11.176;2023-02-11T16:16:18;7.10;84.80
4699;DHT22;33708;49.466;11.176;2023-02-11T16:18:49;7.00;87.10
4699;DHT22;33708;49.466;11.176;2023-02-11T16:21:17;6.90;84.40
4699;DHT22;33708;49.466;11.176;2023-02-11T16:23:52;7.10;85.10
4699;DHT22;33708;49.466;11.176;2023-02-11T16:29:17;6.80;85.60
4699;DHT22;33708;49.466;11.176;2023-02-11T16:31:46;6.90;86.00
4699;DHT22;33708;49.466;11.176;2023-02-11T16:34:20;6.90;87.20
4699;DHT22;33708;49.466;11.176;2023-02-11T16:36:47;6.80;87.00
4699;DHT22;33708;49.466;11.176;2023-02-11T16:39:13;6.70;85.00
4699;DHT22;33708;49.466;11.176;2023-02-11T16:41:39;6.80;90.80
4699;DHT22;33708;49.466;11.176;2023-02-11T16:44:07;6.90;92.40
4699;DHT22;33708;49.466;11.176;2023-02-11T16:46:33;6.90;91.10
4699;DHT22;33708;49.466;11.176;2023-02-11T16:49:16;6.70;89.70
4699;DHT22;33708;49.466;11.176;2023-02-11T16:51:43;6.80;91.50
4699;DHT22;33708;49.466;11.176;2023-02-11T16:54:13;6.90;92.50
4699;DHT22;33708;49.466;11.176;2023-02-11T16:56:39;7.20;92.40
4699;DHT22;33708;49.466;11.176;2023-02-11T16:59:05;6.90;93.30
4699;DHT22;33708;49.466;11.176;2023-02-11T17:01:31;6.90;91.80
4699;DHT22;33708;49.466;11.176;2023-02-11T17:03:57;6.80;90.80
4699;DHT22;33708;49.466;11.176;2023-02-11T17:06:23;6.60;91.60
4699;DHT22;33708;49.466;11.176;2023-02-11T17:08:48;6.70;92.10
4699;DHT22;33708;49.466;11.176;2023-02-11T17:11:14;6.80;94.10
4699;DHT22;33708;49.466;11.176;2023-02-11T17:13:42;6.80;92.20
4699;DHT22;33708;49.466;11.176;2023-02-11T17:16:19;6.60;92.20
4699;DHT22;33708;49.466;11.176;2023-02-11T17:18:46;6.50;91.10
4699;DHT22;33708;49.466;11.176;2023-02-11T17:21:12;6.60;94.60
4699;DHT22;33708;49.466;11.176;2023-02-11T17:23:38;6.70;93.50
4699;DHT22;33708;49.466;11.176;2023-02-11T17:26:04;6.50;90.80
4699;DHT22;33708;49.466;11.176;2023-02-11T17:28:30;6.40;89.60
4699;DHT22;33708;49.466;11.176;2023-02-11T17:30:57;6.20;88.60
4699;DHT22;33708;49.466;11.176;2023-02-11T17:33:23;6.00;88.60
4699;DHT22;33708;49.466;11.176;2023-02-11T17:35:49;5.90;87.60
4699;DHT22;33708;49.466;11.176;2023-02-11T17:38:14;5.90;88.60
4699;DHT22;33708;49.466;11.176;2023-02-11T17:40:40;5.70;90.40
4699;DHT22;33708;49.466;11.176;2023-02-11T17:43:06;5.80;90.50
4699;DHT22;33708;49.466;11.176;2023-02-11T17:45:31;6.00;90.70
4699;DHT22;33708;49.466;11.176;2023-02-11T17:48:02;5.70;91.60
4699;DHT22;33708;49.466;11.176;2023-02-11T17:50:28;5.70;96.00
4699;DHT22;33708;49.466;11.176;2023-02-11T17:52:54;5.60;94.30
4699;DHT22;33708;49.466;11.176;2023-02-11T17:55:22;5.70;94.80
4699;DHT22;33708;49.466;11.176;2023-02-11T17:57:48;5.80;95.30
4699;DHT22;33708;49.466;11.176;2023-02-11T18:00:14;5.70;95.00
4699;DHT22;33708;49.466;11.176;2023-02-11T18:02:40;5.70;96.30
4699;DHT22;33708;49.466;11.176;2023-02-11T18:05:11;5.80;96.40
4699;DHT22;33708;49.466;11.176;2023-02-11T18:07:36;5.50;97.10
4699;DHT22;33708;49.466;11.176;2023-02-11T18:10:05;5.70;97.80
4699;DHT22;33708;49.466;11.176;2023-02-11T18:12:31;5.40;99.90
4699;DHT22;33708;49.466;11.176;2023-02-11T18:14:56;5.50;99.40
4699;DHT22;33708;49.466;11.176;2023-02-11T18:17:22;5.40;99.10
4699;DHT22;33708;49.466;11.176;2023-02-11T18:19:48;5.50;99.90
4699;DHT22;33708;49.466;11.176;2023-02-11T18:22:14;5.60;99.90
4699;DHT22;33708;49.466;11.176;2023-02-11T18:24:40;5.70;99.90
4699;DHT22;33708;49.466;11.176;2023-02-11T18:27:06;5.80;99.90